Delta Junction, AK (99737)

5:14 AM AKDT on July 25, 2016 (GMT -0800)
AK_Meso | | Change Station

Elev 1381 ft 63.94 °N, 145.60 °W | Updated 44 minutes ago

Partly Cloudy
Partly Cloudy
47 °F
Feels Like 44 °F
N
7
Wind Variable Wind from South
Gusts 0.0 mph

Today
High -- | Low -- °F
--% Chance of Precip.
Yesterday
High -- | Low -- °F
Precip. -- in
Pressure 29.78 in
Visibility 10.0 miles
Clouds Few 9000 ft
Windchill 44 °F
Dew Point 46 °F
Humidity 97%
Rainfall in
Snow Depth Not available.
4:30 AM 11:04 PM
Waning Gibbous, 66% visible
METAR PABI 251253Z AUTO 20003KT 10SM FEW090 10/09 A2976 RMK AO2 SLP082 T01000094 TSNO $
Pressure 29.78 in
Visibility 10.0 miles
Clouds Few 9000 ft
Windchill 44 °F
Dew Point 46 °F
Humidity 97%
Rainfall in
Snow Depth Not available.
4:30 AM 11:04 PM
Waning Gibbous, 66% visible
METAR PABI 251253Z AUTO 20003KT 10SM FEW090 10/09 A2976 RMK AO2 SLP082 T01000094 TSNO $

10-Day Weather Forecast

Almanac

Astronomy

Jul. 25, 2016 Rise Set
Actual Time
Civil Twilight
Nautical Twilight
Astronomical Twilight
Moon
Length of Visible Light
Length of Day
Tomorrow will be .
, % of the Moon is Illuminated

Today's Extremes

State Highs State Lows

Community

WunderPhotos

Upload Photos

1,927,297 photos uploaded!

WunderBlog® & News

Nearby

Air Quality

  Air Quality AQ Index Pollutant
Not available.

Snow Depth

Station Depth Elevation

Earthquake Activity

City Distance Mag. Time & Date
Minimum magnitude displayed is 2.5.

Coastal Water Temperatures

Place Temperature

Stations

Nearby Weather Stations

Station Location Temp. Windchill Dew Point Humidity Wind Precip. Elev Updated Type
                   

Watches & Warnings

There are currently no watches in effect.